Ayr, ND

10:08 AM CST on March 05, 2015 (GMT -0600)
Home of the Absaraka Crows | Change Station
CLOSE
Current Station
Personal Weather Station
Location: Absaraka, ND
Elevation: 1066 ft
Nearby Weather Stations

Elev 1066 ft 46.98 °N, 97.39 °W | Updated 9 seconds ago

Light Snow
Light Snow
8.4 °F
Feels Like -6 °F
N
10.7
Wind Variable Wind from SW
Gusts 10.7 mph

Today
High -- | Low -- °F
--% Chance of Precip.
Yesterday
High -- | Low -- °F
Precip. -- in
7:03 AM 6:21 PM
Full, 100% visible
Pressure 30.26 in
Visibility 10.0 miles
Clouds Clear
Windchill -6 °F
Dew Point -2 °F
Humidity 63%
Rainfall in
Snow Depth Not available.
UV 2 out of 12
Pollen .10 out of 12
Air Quality Not available.
Flu Activity Not available.
METAR KBAC 051555Z AUTO 20015KT 10SM -SN CLR M14/M18 A3026 RMK AO2

More Conditions Fewer Conditions

Pressure 30.26 in
Visibility 10.0 miles
Clouds Clear
Windchill -6 °F
Dew Point -2 °F
Humidity 63%
Rainfall in
Snow Depth Not available.
UV 2 out of 12
Pollen .10 out of 12
Air Quality Not available.
Flu Activity Not available.
METAR KBAC 051555Z AUTO 20015KT 10SM -SN CLR M14/M18 A3026 RMK AO2

More Conditions Fewer Conditions

10-Day Weather Forecast

Almanac

Astronomy

Mar. 05, 2015 Rise Set
Actual Time
Civil Twilight
Nautical Twilight
Astronomical Twilight
Moon
Length of Visible Light
Length of Day
Tomorrow will be .
, % of the Moon is Illuminated

Today's Extremes

State Highs State Lows

Community

WunderPhotos

Upload Photos

1,802,833 photos uploaded!

WunderBlogs® & News

Nearby

Air Quality

  Air Quality AQ Index Pollutant
Not available.

Snow Depth

Station Depth Elevation

Earthquake Activity

City Distance Mag. Time & Date
Minimum magnitude displayed is 2.5.

Coastal Water Temperatures

Place Temperature

Nearby Weather Stations